sensor_id;sensor_type;location;lat;lon;timestamp;temperature;humidity
27707;DHT22;36332;51.384;0.040;2023-06-22T00:00:26;18.50;99.90
27707;DHT22;36332;51.384;0.040;2023-06-22T00:02:54;18.50;99.90
27707;DHT22;36332;51.384;0.040;2023-06-22T00:05:21;18.50;99.90
27707;DHT22;36332;51.384;0.040;2023-06-22T00:07:49;18.40;99.90
27707;DHT22;36332;51.384;0.040;2023-06-22T00:10:16;18.40;99.90
27707;DHT22;36332;51.384;0.040;2023-06-22T00:12:44;18.40;99.90
27707;DHT22;36332;51.384;0.040;2023-06-22T00:15:11;18.40;99.90
27707;DHT22;36332;51.384;0.040;2023-06-22T00:17:39;18.40;99.90
27707;DHT22;36332;51.384;0.040;2023-06-22T00:20:07;18.40;99.90
27707;DHT22;36332;51.384;0.040;2023-06-22T00:22:35;18.40;99.90
27707;DHT22;36332;51.384;0.040;2023-06-22T00:25:09;18.30;99.90
27707;DHT22;36332;51.384;0.040;2023-06-22T00:27:37;18.30;99.90
27707;DHT22;36332;51.384;0.040;2023-06-22T00:30:07;18.30;99.90
27707;DHT22;36332;51.384;0.040;2023-06-22T00:32:34;18.30;99.90
27707;DHT22;36332;51.384;0.040;2023-06-22T00:35:02;18.20;99.90
27707;DHT22;36332;51.384;0.040;2023-06-22T00:37:30;18.20;99.90
27707;DHT22;36332;51.384;0.040;2023-06-22T00:39:59;18.10;99.90
27707;DHT22;36332;51.384;0.040;2023-06-22T00:42:26;18.10;99.90
27707;DHT22;36332;51.384;0.040;2023-06-22T00:44:54;18.10;99.90
27707;DHT22;36332;51.384;0.040;2023-06-22T00:47:23;18.00;99.90
27707;DHT22;36332;51.384;0.040;2023-06-22T00:49:51;18.00;99.90
27707;DHT22;36332;51.384;0.040;2023-06-22T00:52:22;18.00;99.90
27707;DHT22;36332;51.384;0.040;2023-06-22T00:54:56;17.90;99.90
27707;DHT22;36332;51.384;0.040;2023-06-22T00:57:24;17.90;99.90
27707;DHT22;36332;51.384;0.040;2023-06-22T00:59:55;17.90;99.90
27707;DHT22;36332;51.384;0.040;2023-06-22T01:02:23;17.80;99.90
27707;DHT22;36332;51.384;0.040;2023-06-22T01:04:51;17.80;99.90
27707;DHT22;36332;51.384;0.040;2023-06-22T01:07:31;17.80;99.90
27707;DHT22;36332;51.384;0.040;2023-06-22T01:10:41;17.70;99.90
27707;DHT22;36332;51.384;0.040;2023-06-22T01:13:41;17.70;99.90
27707;DHT22;36332;51.384;0.040;2023-06-22T01:16:23;17.70;99.90
27707;DHT22;36332;51.384;0.040;2023-06-22T01:18:54;17.70;99.90
27707;DHT22;36332;51.384;0.040;2023-06-22T01:21:27;17.70;99.90
27707;DHT22;36332;51.384;0.040;2023-06-22T01:26:43;17.70;99.90
27707;DHT22;36332;51.384;0.040;2023-06-22T01:29:15;17.60;99.90
27707;DHT22;36332;51.384;0.040;2023-06-22T01:31:44;17.60;99.90
27707;DHT22;36332;51.384;0.040;2023-06-22T01:34:13;17.60;99.90
27707;DHT22;36332;51.384;0.040;2023-06-22T01:36:43;17.60;99.90
27707;DHT22;36332;51.384;0.040;2023-06-22T01:39:11;17.50;99.90
27707;DHT22;36332;51.384;0.040;2023-06-22T01:41:41;17.50;99.90
27707;DHT22;36332;51.384;0.040;2023-06-22T01:44:09;17.50;99.90
27707;DHT22;36332;51.384;0.040;2023-06-22T01:46:38;17.40;99.90
27707;DHT22;36332;51.384;0.040;2023-06-22T01:49:07;17.40;99.90
27707;DHT22;36332;51.384;0.040;2023-06-22T01:51:36;19.00;99.90
27707;DHT22;36332;51.384;0.040;2023-06-22T01:54:06;17.30;99.90
27707;DHT22;36332;51.384;0.040;2023-06-22T01:56:35;17.30;99.90
27707;DHT22;36332;51.384;0.040;2023-06-22T01:59:12;17.30;99.90
27707;DHT22;36332;51.384;0.040;2023-06-22T02:01:47;17.20;99.90
27707;DHT22;36332;51.384;0.040;2023-06-22T02:04:26;17.20;99.90
27707;DHT22;36332;51.384;0.040;2023-06-22T02:06:59;17.20;99.90
27707;DHT22;36332;51.384;0.040;2023-06-22T02:09:30;17.10;99.90
27707;DHT22;36332;51.384;0.040;2023-06-22T02:12:02;17.00;99.90
27707;DHT22;36332;51.384;0.040;2023-06-22T02:14:31;16.90;99.90
27707;DHT22;36332;51.384;0.040;2023-06-22T02:17:00;16.90;99.90
27707;DHT22;36332;51.384;0.040;2023-06-22T02:19:27;16.80;99.90
27707;DHT22;36332;51.384;0.040;2023-06-22T02:24:28;16.70;99.90
27707;DHT22;36332;51.384;0.040;2023-06-22T02:26:59;16.70;99.90
27707;DHT22;36332;51.384;0.040;2023-06-22T02:29:27;16.60;99.90
27707;DHT22;36332;51.384;0.040;2023-06-22T02:31:55;16.60;99.90
27707;DHT22;36332;51.384;0.040;2023-06-22T02:34:23;16.70;99.90
27707;DHT22;36332;51.384;0.040;2023-06-22T02:36:51;16.60;99.90
27707;DHT22;36332;51.384;0.040;2023-06-22T02:39:23;18.30;99.90
27707;DHT22;36332;51.384;0.040;2023-06-22T02:41:53;16.60;99.90
27707;DHT22;36332;51.384;0.040;2023-06-22T02:44:22;16.60;99.90
27707;DHT22;36332;51.384;0.040;2023-06-22T02:46:50;16.60;99.90
27707;DHT22;36332;51.384;0.040;2023-06-22T02:49:18;16.50;99.90
27707;DHT22;36332;51.384;0.040;2023-06-22T02:51:47;16.50;99.90
27707;DHT22;36332;51.384;0.040;2023-06-22T02:54:19;16.50;99.90
27707;DHT22;36332;51.384;0.040;2023-06-22T02:56:50;16.50;99.90
27707;DHT22;36332;51.384;0.040;2023-06-22T02:59:19;16.40;99.90
27707;DHT22;36332;51.384;0.040;2023-06-22T03:01:53;16.40;99.90
27707;DHT22;36332;51.384;0.040;2023-06-22T03:04:28;16.20;99.90
27707;DHT22;36332;51.384;0.040;2023-06-22T03:06:55;16.20;99.90
27707;DHT22;36332;51.384;0.040;2023-06-22T03:09:23;16.10;99.90
27707;DHT22;36332;51.384;0.040;2023-06-22T03:11:51;16.20;99.90
27707;DHT22;36332;51.384;0.040;2023-06-22T03:14:20;16.10;99.90
27707;DHT22;36332;51.384;0.040;2023-06-22T03:16:48;16.10;99.90
27707;DHT22;36332;51.384;0.040;2023-06-22T03:19:16;16.10;99.90
27707;DHT22;36332;51.384;0.040;2023-06-22T03:21:44;16.10;99.90
27707;DHT22;36332;51.384;0.040;2023-06-22T03:24:11;16.10;99.90
27707;DHT22;36332;51.384;0.040;2023-06-22T03:26:39;16.00;99.90
27707;DHT22;36332;51.384;0.040;2023-06-22T03:29:06;16.10;99.90
27707;DHT22;36332;51.384;0.040;2023-06-22T03:31:34;16.10;99.90
27707;DHT22;36332;51.384;0.040;2023-06-22T03:34:02;16.10;99.90
27707;DHT22;36332;51.384;0.040;2023-06-22T03:36:30;16.10;99.90
27707;DHT22;36332;51.384;0.040;2023-06-22T03:38:58;16.10;99.90
27707;DHT22;36332;51.384;0.040;2023-06-22T03:41:26;16.00;99.90
27707;DHT22;36332;51.384;0.040;2023-06-22T03:43:54;16.00;99.90
27707;DHT22;36332;51.384;0.040;2023-06-22T03:46:22;16.00;99.90
27707;DHT22;36332;51.384;0.040;2023-06-22T03:48:49;16.00;99.90
27707;DHT22;36332;51.384;0.040;2023-06-22T03:51:17;16.00;99.90
27707;DHT22;36332;51.384;0.040;2023-06-22T03:53:45;16.00;99.90
27707;DHT22;36332;51.384;0.040;2023-06-22T03:56:12;16.00;99.90
27707;DHT22;36332;51.384;0.040;2023-06-22T03:58:40;16.00;99.90
27707;DHT22;36332;51.384;0.040;2023-06-22T04:01:10;15.90;99.90
27707;DHT22;36332;51.384;0.040;2023-06-22T04:03:39;16.00;99.90
27707;DHT22;36332;51.384;0.040;2023-06-22T04:06:07;15.90;99.90
27707;DHT22;36332;51.384;0.040;2023-06-22T04:08:35;16.00;99.90
27707;DHT22;36332;51.384;0.040;2023-06-22T04:11:02;15.90;99.90
27707;DHT22;36332;51.384;0.040;2023-06-22T04:13:30;16.00;99.90
27707;DHT22;36332;51.384;0.040;2023-06-22T04:15:58;16.00;99.90
27707;DHT22;36332;51.384;0.040;2023-06-22T04:18:26;15.70;99.90
27707;DHT22;36332;51.384;0.040;2023-06-22T04:20:53;15.90;99.90
27707;DHT22;36332;51.384;0.040;2023-06-22T04:23:21;16.00;99.90
27707;DHT22;36332;51.384;0.040;2023-06-22T04:25:49;16.00;99.90
27707;DHT22;36332;51.384;0.040;2023-06-22T04:28:16;16.00;99.90
27707;DHT22;36332;51.384;0.040;2023-06-22T04:30:44;16.00;99.90
27707;DHT22;36332;51.384;0.040;2023-06-22T04:33:15;16.10;99.90
27707;DHT22;36332;51.384;0.040;2023-06-22T04:35:46;16.20;99.90
27707;DHT22;36332;51.384;0.040;2023-06-22T04:38:14;16.20;99.90
27707;DHT22;36332;51.384;0.040;2023-06-22T04:40:41;16.30;99.90
27707;DHT22;36332;51.384;0.040;2023-06-22T04:43:09;16.30;99.90
27707;DHT22;36332;51.384;0.040;2023-06-22T04:45:37;16.20;99.90
27707;DHT22;36332;51.384;0.040;2023-06-22T04:48:06;16.30;99.90
27707;DHT22;36332;51.384;0.040;2023-06-22T04:50:34;16.30;99.90
27707;DHT22;36332;51.384;0.040;2023-06-22T04:53:01;16.30;99.90
27707;DHT22;36332;51.384;0.040;2023-06-22T04:55:32;16.30;99.90
27707;DHT22;36332;51.384;0.040;2023-06-22T04:58:00;16.40;99.90
27707;DHT22;36332;51.384;0.040;2023-06-22T05:00:32;16.30;99.90
27707;DHT22;36332;51.384;0.040;2023-06-22T05:03:03;16.40;99.90
27707;DHT22;36332;51.384;0.040;2023-06-22T05:05:46;16.40;99.90
27707;DHT22;36332;51.384;0.040;2023-06-22T05:08:14;16.40;99.90
27707;DHT22;36332;51.384;0.040;2023-06-22T05:10:42;16.40;99.90
27707;DHT22;36332;51.384;0.040;2023-06-22T05:13:30;16.60;99.90
27707;DHT22;36332;51.384;0.040;2023-06-22T05:15:57;16.60;99.90
27707;DHT22;36332;51.384;0.040;2023-06-22T05:18:29;16.70;99.90
27707;DHT22;36332;51.384;0.040;2023-06-22T05:20:58;16.70;99.90
27707;DHT22;36332;51.384;0.040;2023-06-22T05:23:26;17.00;99.90
27707;DHT22;36332;51.384;0.040;2023-06-22T05:25:54;16.90;99.90
27707;DHT22;36332;51.384;0.040;2023-06-22T05:28:25;18.60;99.90
27707;DHT22;36332;51.384;0.040;2023-06-22T05:30:53;17.10;99.90
27707;DHT22;36332;51.384;0.040;2023-06-22T05:33:21;17.30;99.90
27707;DHT22;36332;51.384;0.040;2023-06-22T05:35:48;17.40;99.90
27707;DHT22;36332;51.384;0.040;2023-06-22T05:38:16;18.20;99.90
27707;DHT22;36332;51.384;0.040;2023-06-22T05:40:43;17.50;99.90
27707;DHT22;36332;51.384;0.040;2023-06-22T05:43:11;17.50;99.90
27707;DHT22;36332;51.384;0.040;2023-06-22T05:45:39;17.60;99.90
27707;DHT22;36332;51.384;0.040;2023-06-22T05:48:07;17.70;99.90
27707;DHT22;36332;51.384;0.040;2023-06-22T05:50:35;17.70;99.90
27707;DHT22;36332;51.384;0.040;2023-06-22T05:53:03;17.80;99.90
27707;DHT22;36332;51.384;0.040;2023-06-22T05:55:31;17.80;99.90
27707;DHT22;36332;51.384;0.040;2023-06-22T05:58:02;18.00;99.90
27707;DHT22;36332;51.384;0.040;2023-06-22T06:00:31;18.00;99.90
27707;DHT22;36332;51.384;0.040;2023-06-22T06:02:59;18.20;99.90
27707;DHT22;36332;51.384;0.040;2023-06-22T06:05:32;18.20;99.90
27707;DHT22;36332;51.384;0.040;2023-06-22T06:08:01;18.40;99.90
27707;DHT22;36332;51.384;0.040;2023-06-22T06:10:29;18.40;99.90
27707;DHT22;36332;51.384;0.040;2023-06-22T06:12:58;18.50;99.90
27707;DHT22;36332;51.384;0.040;2023-06-22T06:15:26;18.60;99.90
27707;DHT22;36332;51.384;0.040;2023-06-22T06:17:54;18.70;99.90
27707;DHT22;36332;51.384;0.040;2023-06-22T06:20:23;18.80;99.90
27707;DHT22;36332;51.384;0.040;2023-06-22T06:22:51;18.80;99.90
27707;DHT22;36332;51.384;0.040;2023-06-22T06:25:19;18.90;99.90
27707;DHT22;36332;51.384;0.040;2023-06-22T06:27:50;18.90;99.90
27707;DHT22;36332;51.384;0.040;2023-06-22T06:30:19;18.90;99.90
27707;DHT22;36332;51.384;0.040;2023-06-22T06:32:46;18.90;99.90
27707;DHT22;36332;51.384;0.040;2023-06-22T06:35:16;19.00;99.90
27707;DHT22;36332;51.384;0.040;2023-06-22T06:37:46;19.00;99.90
27707;DHT22;36332;51.384;0.040;2023-06-22T06:40:15;19.10;99.90
27707;DHT22;36332;51.384;0.040;2023-06-22T06:42:46;19.20;99.90
27707;DHT22;36332;51.384;0.040;2023-06-22T06:45:19;19.20;99.90
27707;DHT22;36332;51.384;0.040;2023-06-22T06:47:47;19.30;99.90
27707;DHT22;36332;51.384;0.040;2023-06-22T06:50:15;23.10;99.90
27707;DHT22;36332;51.384;0.040;2023-06-22T06:52:43;19.40;99.90
27707;DHT22;36332;51.384;0.040;2023-06-22T06:55:11;19.40;99.90
27707;DHT22;36332;51.384;0.040;2023-06-22T06:57:40;19.40;99.90
27707;DHT22;36332;51.384;0.040;2023-06-22T07:00:11;19.40;99.90
27707;DHT22;36332;51.384;0.040;2023-06-22T07:02:43;19.50;99.90
27707;DHT22;36332;51.384;0.040;2023-06-22T07:05:12;19.60;99.90
27707;DHT22;36332;51.384;0.040;2023-06-22T07:07:40;19.60;99.90
27707;DHT22;36332;51.384;0.040;2023-06-22T07:10:10;19.70;99.90
27707;DHT22;36332;51.384;0.040;2023-06-22T07:12:37;19.80;99.90
27707;DHT22;36332;51.384;0.040;2023-06-22T07:15:07;19.80;99.90
27707;DHT22;36332;51.384;0.040;2023-06-22T07:17:39;19.80;99.90
27707;DHT22;36332;51.384;0.040;2023-06-22T07:20:09;19.90;99.90
27707;DHT22;36332;51.384;0.040;2023-06-22T07:22:40;20.00;99.90
27707;DHT22;36332;51.384;0.040;2023-06-22T07:25:08;20.00;99.90
27707;DHT22;36332;51.384;0.040;2023-06-22T07:28:03;20.20;99.90
27707;DHT22;36332;51.384;0.040;2023-06-22T07:30:32;20.20;99.90
27707;DHT22;36332;51.384;0.040;2023-06-22T07:33:01;20.20;99.90
27707;DHT22;36332;51.384;0.040;2023-06-22T07:35:31;20.30;99.90
27707;DHT22;36332;51.384;0.040;2023-06-22T07:37:59;20.30;99.90
27707;DHT22;36332;51.384;0.040;2023-06-22T07:40:32;20.40;99.90
27707;DHT22;36332;51.384;0.040;2023-06-22T07:43:01;20.40;99.90
27707;DHT22;36332;51.384;0.040;2023-06-22T07:45:29;20.50;99.90
27707;DHT22;36332;51.384;0.040;2023-06-22T07:47:56;20.60;99.90
27707;DHT22;36332;51.384;0.040;2023-06-22T07:50:24;20.70;99.90
27707;DHT22;36332;51.384;0.040;2023-06-22T07:52:52;20.80;99.90
27707;DHT22;36332;51.384;0.040;2023-06-22T07:55:20;20.90;99.90
27707;DHT22;36332;51.384;0.040;2023-06-22T07:57:49;21.10;99.90
27707;DHT22;36332;51.384;0.040;2023-06-22T08:00:19;21.30;99.90
27707;DHT22;36332;51.384;0.040;2023-06-22T08:02:47;21.40;99.90
27707;DHT22;36332;51.384;0.040;2023-06-22T08:05:15;21.60;99.90
27707;DHT22;36332;51.384;0.040;2023-06-22T08:07:49;21.70;99.90
27707;DHT22;36332;51.384;0.040;2023-06-22T08:10:17;21.80;99.90
27707;DHT22;36332;51.384;0.040;2023-06-22T08:12:45;21.90;99.90
27707;DHT22;36332;51.384;0.040;2023-06-22T08:15:12;22.00;99.90
27707;DHT22;36332;51.384;0.040;2023-06-22T08:17:40;22.10;99.90
27707;DHT22;36332;51.384;0.040;2023-06-22T08:20:08;22.20;99.90
27707;DHT22;36332;51.384;0.040;2023-06-22T08:22:41;22.40;99.90
27707;DHT22;36332;51.384;0.040;2023-06-22T08:25:10;22.50;99.90
27707;DHT22;36332;51.384;0.040;2023-06-22T08:27:37;22.60;99.90
27707;DHT22;36332;51.384;0.040;2023-06-22T08:30:07;22.80;99.90
27707;DHT22;36332;51.384;0.040;2023-06-22T08:32:35;22.90;99.90
27707;DHT22;36332;51.384;0.040;2023-06-22T08:35:03;23.10;99.90
27707;DHT22;36332;51.384;0.040;2023-06-22T08:37:31;23.50;99.90
27707;DHT22;36332;51.384;0.040;2023-06-22T08:40:00;23.50;99.90
27707;DHT22;36332;51.384;0.040;2023-06-22T08:42:28;23.90;99.90
27707;DHT22;36332;51.384;0.040;2023-06-22T08:44:56;23.90;99.90
27707;DHT22;36332;51.384;0.040;2023-06-22T08:47:24;24.10;99.90
27707;DHT22;36332;51.384;0.040;2023-06-22T08:49:51;24.40;99.90
27707;DHT22;36332;51.384;0.040;2023-06-22T08:52:19;24.50;99.90
27707;DHT22;36332;51.384;0.040;2023-06-22T08:54:47;24.60;99.90
27707;DHT22;36332;51.384;0.040;2023-06-22T08:57:15;24.70;99.90
27707;DHT22;36332;51.384;0.040;2023-06-22T08:59:43;24.80;99.90
27707;DHT22;36332;51.384;0.040;2023-06-22T09:02:11;24.80;99.90
27707;DHT22;36332;51.384;0.040;2023-06-22T09:04:38;24.70;99.90
27707;DHT22;36332;51.384;0.040;2023-06-22T09:07:07;24.80;99.90
27707;DHT22;36332;51.384;0.040;2023-06-22T09:09:34;24.90;99.90
27707;DHT22;36332;51.384;0.040;2023-06-22T09:12:02;25.00;99.90
27707;DHT22;36332;51.384;0.040;2023-06-22T09:14:30;25.20;99.90
27707;DHT22;36332;51.384;0.040;2023-06-22T09:16:58;25.40;99.90
27707;DHT22;36332;51.384;0.040;2023-06-22T09:19:25;25.80;99.90
27707;DHT22;36332;51.384;0.040;2023-06-22T09:21:53;25.90;99.90
27707;DHT22;36332;51.384;0.040;2023-06-22T09:24:21;26.20;99.90
27707;DHT22;36332;51.384;0.040;2023-06-22T09:26:49;26.40;99.90
27707;DHT22;36332;51.384;0.040;2023-06-22T09:29:17;26.50;99.90
27707;DHT22;36332;51.384;0.040;2023-06-22T09:31:45;26.70;99.90
27707;DHT22;36332;51.384;0.040;2023-06-22T09:34:13;26.90;99.90
27707;DHT22;36332;51.384;0.040;2023-06-22T09:36:41;27.30;99.90
27707;DHT22;36332;51.384;0.040;2023-06-22T09:39:09;27.10;99.90
27707;DHT22;36332;51.384;0.040;2023-06-22T09:41:36;27.10;99.90
27707;DHT22;36332;51.384;0.040;2023-06-22T09:44:04;27.20;99.90
27707;DHT22;36332;51.384;0.040;2023-06-22T09:46:32;27.40;99.90
27707;DHT22;36332;51.384;0.040;2023-06-22T09:49:00;27.60;99.90
27707;DHT22;36332;51.384;0.040;2023-06-22T09:51:27;27.80;99.90
27707;DHT22;36332;51.384;0.040;2023-06-22T09:53:55;27.90;99.90
27707;DHT22;36332;51.384;0.040;2023-06-22T09:56:23;28.00;99.90
27707;DHT22;36332;51.384;0.040;2023-06-22T09:58:50;28.10;99.90
27707;DHT22;36332;51.384;0.040;2023-06-22T10:01:21;28.20;99.90
27707;DHT22;36332;51.384;0.040;2023-06-22T10:03:49;28.40;99.90
27707;DHT22;36332;51.384;0.040;2023-06-22T10:06:17;28.50;99.90
27707;DHT22;36332;51.384;0.040;2023-06-22T10:08:45;28.50;99.90
27707;DHT22;36332;51.384;0.040;2023-06-22T10:11:12;28.40;99.90
27707;DHT22;36332;51.384;0.040;2023-06-22T10:13:40;28.30;99.90
27707;DHT22;36332;51.384;0.040;2023-06-22T10:16:08;28.10;99.90
27707;DHT22;36332;51.384;0.040;2023-06-22T10:18:36;28.10;99.90
27707;DHT22;36332;51.384;0.040;2023-06-22T10:21:04;28.10;99.90
27707;DHT22;36332;51.384;0.040;2023-06-22T10:23:31;28.20;99.90
27707;DHT22;36332;51.384;0.040;2023-06-22T10:25:59;28.30;99.90
27707;DHT22;36332;51.384;0.040;2023-06-22T10:28:27;28.30;99.90
27707;DHT22;36332;51.384;0.040;2023-06-22T10:30:57;28.30;99.90
27707;DHT22;36332;51.384;0.040;2023-06-22T10:33:24;28.30;99.90
27707;DHT22;36332;51.384;0.040;2023-06-22T10:35:52;28.20;99.90
27707;DHT22;36332;51.384;0.040;2023-06-22T10:38:20;28.10;99.90
27707;DHT22;36332;51.384;0.040;2023-06-22T10:40:48;27.90;99.90
27707;DHT22;36332;51.384;0.040;2023-06-22T10:43:16;27.80;99.90
27707;DHT22;36332;51.384;0.040;2023-06-22T10:45:43;27.90;99.90
27707;DHT22;36332;51.384;0.040;2023-06-22T10:48:11;27.80;99.90
27707;DHT22;36332;51.384;0.040;2023-06-22T10:50:39;27.90;99.90
27707;DHT22;36332;51.384;0.040;2023-06-22T10:53:06;28.10;99.90
27707;DHT22;36332;51.384;0.040;2023-06-22T10:55:34;28.50;99.90
27707;DHT22;36332;51.384;0.040;2023-06-22T10:58:22;28.80;99.90
27707;DHT22;36332;51.384;0.040;2023-06-22T11:00:50;29.30;99.90
27707;DHT22;36332;51.384;0.040;2023-06-22T11:03:17;29.30;99.90
27707;DHT22;36332;51.384;0.040;2023-06-22T11:05:45;29.40;99.90
27707;DHT22;36332;51.384;0.040;2023-06-22T11:08:13;29.40;99.90
27707;DHT22;36332;51.384;0.040;2023-06-22T11:10:42;29.40;99.90
27707;DHT22;36332;51.384;0.040;2023-06-22T11:13:10;29.70;99.90
27707;DHT22;36332;51.384;0.040;2023-06-22T11:15:39;29.70;99.90
27707;DHT22;36332;51.384;0.040;2023-06-22T11:18:07;30.00;99.90
27707;DHT22;36332;51.384;0.040;2023-06-22T11:20:35;30.20;99.90
27707;DHT22;36332;51.384;0.040;2023-06-22T11:23:06;30.30;99.90
27707;DHT22;36332;51.384;0.040;2023-06-22T11:25:34;30.20;99.90
27707;DHT22;36332;51.384;0.040;2023-06-22T11:28:02;29.80;99.20
27707;DHT22;36332;51.384;0.040;2023-06-22T11:30:30;29.70;99.70
27707;DHT22;36332;51.384;0.040;2023-06-22T11:32:59;29.50;99.90
27707;DHT22;36332;51.384;0.040;2023-06-22T11:35:26;29.20;99.90
27707;DHT22;36332;51.384;0.040;2023-06-22T11:37:54;28.00;99.90
27707;DHT22;36332;51.384;0.040;2023-06-22T11:40:23;28.50;99.90
27707;DHT22;36332;51.384;0.040;2023-06-22T11:42:51;32.20;99.90
27707;DHT22;36332;51.384;0.040;2023-06-22T11:45:19;28.70;99.90
27707;DHT22;36332;51.384;0.040;2023-06-22T11:47:47;29.10;99.80
27707;DHT22;36332;51.384;0.040;2023-06-22T11:50:15;29.50;99.20
27707;DHT22;36332;51.384;0.040;2023-06-22T11:52:43;30.50;98.10
27707;DHT22;36332;51.384;0.040;2023-06-22T11:55:10;30.50;98.30
27707;DHT22;36332;51.384;0.040;2023-06-22T11:57:51;31.10;95.60
27707;DHT22;36332;51.384;0.040;2023-06-22T12:00:19;31.20;96.50
27707;DHT22;36332;51.384;0.040;2023-06-22T12:02:47;31.50;95.80
27707;DHT22;36332;51.384;0.040;2023-06-22T12:05:15;31.80;94.70
27707;DHT22;36332;51.384;0.040;2023-06-22T12:07:44;31.70;93.40
27707;DHT22;36332;51.384;0.040;2023-06-22T12:10:11;31.40;93.10
27707;DHT22;36332;51.384;0.040;2023-06-22T12:12:39;31.10;93.90
27707;DHT22;36332;51.384;0.040;2023-06-22T12:15:08;30.70;93.90
27707;DHT22;36332;51.384;0.040;2023-06-22T12:17:36;30.40;93.00
27707;DHT22;36332;51.384;0.040;2023-06-22T12:20:05;30.30;93.80
27707;DHT22;36332;51.384;0.040;2023-06-22T12:22:34;30.20;93.60
27707;DHT22;36332;51.384;0.040;2023-06-22T12:25:01;30.40;93.90
27707;DHT22;36332;51.384;0.040;2023-06-22T12:27:29;30.60;94.10
27707;DHT22;36332;51.384;0.040;2023-06-22T12:29:58;30.90;93.90
27707;DHT22;36332;51.384;0.040;2023-06-22T12:32:25;31.40;93.30
27707;DHT22;36332;51.384;0.040;2023-06-22T12:34:53;31.80;92.50
27707;DHT22;36332;51.384;0.040;2023-06-22T12:37:21;32.20;92.10
27707;DHT22;36332;51.384;0.040;2023-06-22T12:39:49;32.70;91.60
27707;DHT22;36332;51.384;0.040;2023-06-22T12:42:17;33.20;90.90
27707;DHT22;36332;51.384;0.040;2023-06-22T12:44:45;33.70;90.10
27707;DHT22;36332;51.384;0.040;2023-06-22T12:47:13;33.90;88.60
27707;DHT22;36332;51.384;0.040;2023-06-22T12:49:40;34.10;87.60
27707;DHT22;36332;51.384;0.040;2023-06-22T12:52:11;34.00;85.60
27707;DHT22;36332;51.384;0.040;2023-06-22T12:54:38;33.80;85.00
27707;DHT22;36332;51.384;0.040;2023-06-22T12:57:21;33.70;84.40
27707;DHT22;36332;51.384;0.040;2023-06-22T12:59:49;34.00;84.90
27707;DHT22;36332;51.384;0.040;2023-06-22T13:02:17;34.30;83.60
27707;DHT22;36332;51.384;0.040;2023-06-22T13:04:45;34.60;81.50
27707;DHT22;36332;51.384;0.040;2023-06-22T13:07:13;34.70;80.90
27707;DHT22;36332;51.384;0.040;2023-06-22T13:09:50;35.00;77.60
27707;DHT22;36332;51.384;0.040;2023-06-22T13:12:21;35.10;79.70
27707;DHT22;36332;51.384;0.040;2023-06-22T13:14:49;35.30;78.80
27707;DHT22;36332;51.384;0.040;2023-06-22T13:17:17;35.50;77.80
27707;DHT22;36332;51.384;0.040;2023-06-22T13:19:45;35.80;76.00
27707;DHT22;36332;51.384;0.040;2023-06-22T13:22:33;36.00;74.40
27707;DHT22;36332;51.384;0.040;2023-06-22T13:25:07;36.30;71.80
27707;DHT22;36332;51.384;0.040;2023-06-22T13:27:34;36.70;72.10
27707;DHT22;36332;51.384;0.040;2023-06-22T13:30:02;36.90;70.60
27707;DHT22;36332;51.384;0.040;2023-06-22T13:32:30;36.70;69.20
27707;DHT22;36332;51.384;0.040;2023-06-22T13:34:58;36.30;68.50
27707;DHT22;36332;51.384;0.040;2023-06-22T13:37:26;35.90;68.30
27707;DHT22;36332;51.384;0.040;2023-06-22T13:39:54;35.40;68.30
27707;DHT22;36332;51.384;0.040;2023-06-22T13:42:24;34.90;68.30
27707;DHT22;36332;51.384;0.040;2023-06-22T13:44:51;34.50;68.50
27707;DHT22;36332;51.384;0.040;2023-06-22T13:47:19;33.90;68.70
27707;DHT22;36332;51.384;0.040;2023-06-22T13:49:46;33.40;69.80
27707;DHT22;36332;51.384;0.040;2023-06-22T13:52:14;33.10;71.10
27707;DHT22;36332;51.384;0.040;2023-06-22T13:54:41;32.90;71.50
27707;DHT22;36332;51.384;0.040;2023-06-22T13:57:09;33.50;70.90
27707;DHT22;36332;51.384;0.040;2023-06-22T13:59:36;33.90;71.20
27707;DHT22;36332;51.384;0.040;2023-06-22T14:02:04;33.90;71.70
27707;DHT22;36332;51.384;0.040;2023-06-22T14:04:32;34.50;71.00
27707;DHT22;36332;51.384;0.040;2023-06-22T14:06:59;34.90;69.80
27707;DHT22;36332;51.384;0.040;2023-06-22T14:09:27;35.10;66.10
27707;DHT22;36332;51.384;0.040;2023-06-22T14:11:55;35.10;67.20
27707;DHT22;36332;51.384;0.040;2023-06-22T14:14:23;35.20;67.10
27707;DHT22;36332;51.384;0.040;2023-06-22T14:16:50;35.50;67.00
27707;DHT22;36332;51.384;0.040;2023-06-22T14:19:18;35.90;66.30
27707;DHT22;36332;51.384;0.040;2023-06-22T14:21:46;36.40;65.20
27707;DHT22;36332;51.384;0.040;2023-06-22T14:24:13;37.40;60.00
27707;DHT22;36332;51.384;0.040;2023-06-22T14:26:41;37.60;62.10
27707;DHT22;36332;51.384;0.040;2023-06-22T14:29:08;38.10;60.20
27707;DHT22;36332;51.384;0.040;2023-06-22T14:31:36;38.60;55.40
27707;DHT22;36332;51.384;0.040;2023-06-22T14:34:04;38.50;57.50
27707;DHT22;36332;51.384;0.040;2023-06-22T14:36:33;38.10;56.90
27707;DHT22;36332;51.384;0.040;2023-06-22T14:39:01;37.50;56.80
27707;DHT22;36332;51.384;0.040;2023-06-22T14:41:30;36.80;57.80
27707;DHT22;36332;51.384;0.040;2023-06-22T14:43:58;36.50;58.50
27707;DHT22;36332;51.384;0.040;2023-06-22T14:46:27;36.10;57.40
27707;DHT22;36332;51.384;0.040;2023-06-22T14:48:55;36.10;58.10
27707;DHT22;36332;51.384;0.040;2023-06-22T14:51:22;36.00;57.70
27707;DHT22;36332;51.384;0.040;2023-06-22T14:53:50;36.10;57.60
27707;DHT22;36332;51.384;0.040;2023-06-22T14:56:18;36.30;57.00
27707;DHT22;36332;51.384;0.040;2023-06-22T14:58:45;36.60;56.60
27707;DHT22;36332;51.384;0.040;2023-06-22T15:01:16;37.00;56.60
27707;DHT22;36332;51.384;0.040;2023-06-22T15:03:45;37.60;55.80
27707;DHT22;36332;51.384;0.040;2023-06-22T15:06:13;38.20;55.50
27707;DHT22;36332;51.384;0.040;2023-06-22T15:08:42;39.10;52.00
27707;DHT22;36332;51.384;0.040;2023-06-22T15:11:10;39.20;53.20
27707;DHT22;36332;51.384;0.040;2023-06-22T15:13:41;39.50;52.50
27707;DHT22;36332;51.384;0.040;2023-06-22T15:16:09;39.60;51.50
27707;DHT22;36332;51.384;0.040;2023-06-22T15:18:37;39.70;51.40
27707;DHT22;36332;51.384;0.040;2023-06-22T15:21:05;39.90;50.80
27707;DHT22;36332;51.384;0.040;2023-06-22T15:23:33;40.10;50.20
27707;DHT22;36332;51.384;0.040;2023-06-22T15:26:02;40.20;50.20
27707;DHT22;36332;51.384;0.040;2023-06-22T15:28:33;40.30;50.50
27707;DHT22;36332;51.384;0.040;2023-06-22T15:31:02;40.30;50.20
27707;DHT22;36332;51.384;0.040;2023-06-22T15:33:30;40.10;50.60
27707;DHT22;36332;51.384;0.040;2023-06-22T15:35:59;40.10;50.50
27707;DHT22;36332;51.384;0.040;2023-06-22T15:38:32;39.90;50.20
27707;DHT22;36332;51.384;0.040;2023-06-22T15:41:00;39.50;50.30
27707;DHT22;36332;51.384;0.040;2023-06-22T15:43:29;39.30;50.50
27707;DHT22;36332;51.384;0.040;2023-06-22T15:45:56;38.90;50.90